sensor_id;sensor_type;location;lat;lon;timestamp;pressure;altitude;pressure_sealevel;temperature;humidity
64683;BME280;51107;47.652;19.016;2023-06-10T00:00:09;99487.62;;;15.84;100.00
64683;BME280;51107;47.652;19.016;2023-06-10T00:02:41;99488.25;;;15.86;100.00
64683;BME280;51107;47.652;19.016;2023-06-10T00:05:09;99491.44;;;15.81;100.00
64683;BME280;51107;47.652;19.016;2023-06-10T00:07:38;99491.19;;;15.76;100.00
64683;BME280;51107;47.652;19.016;2023-06-10T00:10:07;99486.56;;;15.78;100.00
64683;BME280;51107;47.652;19.016;2023-06-10T00:12:36;99484.31;;;15.75;100.00
64683;BME280;51107;47.652;19.016;2023-06-10T00:15:07;99479.50;;;15.78;100.00
64683;BME280;51107;47.652;19.016;2023-06-10T00:17:36;99484.75;;;15.78;100.00
64683;BME280;51107;47.652;19.016;2023-06-10T00:20:08;99483.13;;;15.77;100.00
64683;BME280;51107;47.652;19.016;2023-06-10T00:22:40;99476.03;;;15.78;100.00
64683;BME280;51107;47.652;19.016;2023-06-10T00:25:13;99479.06;;;15.75;100.00
64683;BME280;51107;47.652;19.016;2023-06-10T00:27:42;99472.75;;;15.69;100.00
64683;BME280;51107;47.652;19.016;2023-06-10T00:30:11;99470.28;;;15.61;100.00
64683;BME280;51107;47.652;19.016;2023-06-10T00:32:39;99479.53;;;15.57;100.00
64683;BME280;51107;47.652;19.016;2023-06-10T00:35:08;99475.66;;;15.53;100.00
64683;BME280;51107;47.652;19.016;2023-06-10T00:37:36;99471.03;;;15.55;100.00
64683;BME280;51107;47.652;19.016;2023-06-10T00:40:05;99469.84;;;15.57;100.00
64683;BME280;51107;47.652;19.016;2023-06-10T00:42:34;99471.66;;;15.57;100.00
64683;BME280;51107;47.652;19.016;2023-06-10T00:45:03;99472.72;;;15.62;100.00
64683;BME280;51107;47.652;19.016;2023-06-10T00:47:31;99471.22;;;15.53;100.00
64683;BME280;51107;47.652;19.016;2023-06-10T00:50:01;99479.72;;;15.55;100.00
64683;BME280;51107;47.652;19.016;2023-06-10T00:52:30;99484.16;;;15.55;100.00
64683;BME280;51107;47.652;19.016;2023-06-10T00:54:59;99482.91;;;15.51;100.00
64683;BME280;51107;47.652;19.016;2023-06-10T00:57:27;99485.66;;;15.42;100.00
64683;BME280;51107;47.652;19.016;2023-06-10T00:59:57;99491.37;;;15.46;100.00
64683;BME280;51107;47.652;19.016;2023-06-10T01:02:27;99486.31;;;15.44;100.00
64683;BME280;51107;47.652;19.016;2023-06-10T01:04:59;99483.28;;;15.48;100.00
64683;BME280;51107;47.652;19.016;2023-06-10T01:10:18;99481.00;;;15.38;100.00
64683;BME280;51107;47.652;19.016;2023-06-10T01:12:57;99484.47;;;15.45;100.00
64683;BME280;51107;47.652;19.016;2023-06-10T01:15:32;99484.94;;;15.49;100.00
64683;BME280;51107;47.652;19.016;2023-06-10T01:18:06;99479.69;;;15.49;100.00
64683;BME280;51107;47.652;19.016;2023-06-10T01:20:37;99487.34;;;15.50;100.00
64683;BME280;51107;47.652;19.016;2023-06-10T01:23:09;99480.28;;;15.51;100.00
64683;BME280;51107;47.652;19.016;2023-06-10T01:25:40;99480.72;;;15.54;100.00
64683;BME280;51107;47.652;19.016;2023-06-10T01:28:19;99487.16;;;15.52;100.00
64683;BME280;51107;47.652;19.016;2023-06-10T01:30:57;99483.34;;;15.54;100.00
64683;BME280;51107;47.652;19.016;2023-06-10T01:33:35;99479.28;;;15.52;100.00
64683;BME280;51107;47.652;19.016;2023-06-10T01:36:04;99484.88;;;15.42;100.00
64683;BME280;51107;47.652;19.016;2023-06-10T01:38:40;99481.47;;;15.48;100.00
64683;BME280;51107;47.652;19.016;2023-06-10T01:41:12;99479.62;;;15.42;100.00
64683;BME280;51107;47.652;19.016;2023-06-10T01:43:43;99478.25;;;15.46;100.00
64683;BME280;51107;47.652;19.016;2023-06-10T01:46:15;99478.50;;;15.51;100.00
64683;BME280;51107;47.652;19.016;2023-06-10T01:48:43;99465.78;;;15.55;100.00
64683;BME280;51107;47.652;19.016;2023-06-10T01:51:12;99473.47;;;15.56;100.00
64683;BME280;51107;47.652;19.016;2023-06-10T01:53:40;99471.06;;;15.61;100.00
64683;BME280;51107;47.652;19.016;2023-06-10T01:56:11;99476.34;;;15.61;100.00
64683;BME280;51107;47.652;19.016;2023-06-10T01:58:48;99472.66;;;15.56;100.00
64683;BME280;51107;47.652;19.016;2023-06-10T02:01:17;99468.66;;;15.60;100.00
64683;BME280;51107;47.652;19.016;2023-06-10T02:03:45;99475.34;;;15.62;100.00
64683;BME280;51107;47.652;19.016;2023-06-10T02:06:14;99477.31;;;15.60;100.00
64683;BME280;51107;47.652;19.016;2023-06-10T02:08:42;99473.50;;;15.63;100.00
64683;BME280;51107;47.652;19.016;2023-06-10T02:11:11;99483.22;;;15.62;100.00
64683;BME280;51107;47.652;19.016;2023-06-10T02:13:39;99482.22;;;15.63;100.00
64683;BME280;51107;47.652;19.016;2023-06-10T02:16:07;99488.66;;;15.61;100.00
64683;BME280;51107;47.652;19.016;2023-06-10T02:18:37;99482.56;;;15.54;100.00
64683;BME280;51107;47.652;19.016;2023-06-10T02:21:08;99479.47;;;15.50;100.00
64683;BME280;51107;47.652;19.016;2023-06-10T02:23:37;99483.28;;;15.48;100.00
64683;BME280;51107;47.652;19.016;2023-06-10T02:26:06;99483.50;;;15.46;100.00
64683;BME280;51107;47.652;19.016;2023-06-10T02:28:35;99477.47;;;15.52;100.00
64683;BME280;51107;47.652;19.016;2023-06-10T02:31:03;99484.34;;;15.53;100.00
64683;BME280;51107;47.652;19.016;2023-06-10T02:33:32;99483.34;;;15.54;100.00
64683;BME280;51107;47.652;19.016;2023-06-10T02:36:02;99481.53;;;15.55;100.00
64683;BME280;51107;47.652;19.016;2023-06-10T02:38:31;99490.59;;;15.52;100.00
64683;BME280;51107;47.652;19.016;2023-06-10T02:41:00;99483.28;;;15.48;100.00
64683;BME280;51107;47.652;19.016;2023-06-10T02:43:28;99487.50;;;15.42;100.00
64683;BME280;51107;47.652;19.016;2023-06-10T02:45:57;99485.38;;;15.31;100.00
64683;BME280;51107;47.652;19.016;2023-06-10T02:48:26;99490.25;;;15.34;100.00
64683;BME280;51107;47.652;19.016;2023-06-10T02:50:55;99486.62;;;15.35;100.00
64683;BME280;51107;47.652;19.016;2023-06-10T02:53:24;99486.56;;;15.28;100.00
64683;BME280;51107;47.652;19.016;2023-06-10T02:55:53;99489.75;;;15.23;100.00
64683;BME280;51107;47.652;19.016;2023-06-10T02:58:22;99493.88;;;15.33;100.00
64683;BME280;51107;47.652;19.016;2023-06-10T03:00:51;99496.50;;;15.33;100.00
64683;BME280;51107;47.652;19.016;2023-06-10T03:03:19;99490.00;;;15.28;100.00
64683;BME280;51107;47.652;19.016;2023-06-10T03:05:49;99494.00;;;15.24;100.00
64683;BME280;51107;47.652;19.016;2023-06-10T03:08:18;99493.38;;;15.22;100.00
64683;BME280;51107;47.652;19.016;2023-06-10T03:10:47;99496.31;;;15.13;100.00
64683;BME280;51107;47.652;19.016;2023-06-10T03:13:15;99498.63;;;15.22;100.00
64683;BME280;51107;47.652;19.016;2023-06-10T03:15:44;99497.66;;;15.30;100.00
64683;BME280;51107;47.652;19.016;2023-06-10T03:18:14;99490.50;;;15.39;100.00
64683;BME280;51107;47.652;19.016;2023-06-10T03:20:43;99502.25;;;15.43;100.00
64683;BME280;51107;47.652;19.016;2023-06-10T03:23:13;99496.75;;;15.38;100.00
64683;BME280;51107;47.652;19.016;2023-06-10T03:25:41;99501.94;;;15.31;100.00
64683;BME280;51107;47.652;19.016;2023-06-10T03:28:10;99503.25;;;15.42;100.00
64683;BME280;51107;47.652;19.016;2023-06-10T03:30:39;99504.28;;;15.48;100.00
64683;BME280;51107;47.652;19.016;2023-06-10T03:33:08;99506.53;;;15.51;100.00
64683;BME280;51107;47.652;19.016;2023-06-10T03:35:36;99509.59;;;15.54;100.00
64683;BME280;51107;47.652;19.016;2023-06-10T03:38:05;99508.97;;;15.52;100.00
64683;BME280;51107;47.652;19.016;2023-06-10T03:40:34;99512.87;;;15.35;100.00
64683;BME280;51107;47.652;19.016;2023-06-10T03:43:03;99507.84;;;15.40;100.00
64683;BME280;51107;47.652;19.016;2023-06-10T03:45:31;99505.75;;;15.28;100.00
64683;BME280;51107;47.652;19.016;2023-06-10T03:48:01;99510.78;;;15.30;100.00
64683;BME280;51107;47.652;19.016;2023-06-10T03:50:30;99492.19;;;15.25;100.00
64683;BME280;51107;47.652;19.016;2023-06-10T03:52:59;99506.84;;;15.19;100.00
64683;BME280;51107;47.652;19.016;2023-06-10T03:55:28;99508.69;;;15.19;100.00
64683;BME280;51107;47.652;19.016;2023-06-10T03:57:57;99497.56;;;15.17;100.00
64683;BME280;51107;47.652;19.016;2023-06-10T04:00:26;99504.59;;;15.16;100.00
64683;BME280;51107;47.652;19.016;2023-06-10T04:02:55;99502.69;;;15.25;100.00
64683;BME280;51107;47.652;19.016;2023-06-10T04:05:27;99499.69;;;15.28;100.00
64683;BME280;51107;47.652;19.016;2023-06-10T04:07:58;99503.97;;;15.36;100.00
64683;BME280;51107;47.652;19.016;2023-06-10T04:10:26;99503.06;;;15.43;100.00
64683;BME280;51107;47.652;19.016;2023-06-10T04:12:55;99509.78;;;15.53;100.00
64683;BME280;51107;47.652;19.016;2023-06-10T04:15:23;99506.59;;;15.57;100.00
64683;BME280;51107;47.652;19.016;2023-06-10T04:17:52;99506.66;;;15.42;100.00
64683;BME280;51107;47.652;19.016;2023-06-10T04:20:21;99510.66;;;15.38;100.00
64683;BME280;51107;47.652;19.016;2023-06-10T04:22:49;99502.91;;;15.30;100.00
64683;BME280;51107;47.652;19.016;2023-06-10T04:25:18;99506.13;;;15.25;100.00
64683;BME280;51107;47.652;19.016;2023-06-10T04:27:48;99505.94;;;15.27;100.00
64683;BME280;51107;47.652;19.016;2023-06-10T04:30:17;99504.81;;;15.36;100.00
64683;BME280;51107;47.652;19.016;2023-06-10T04:32:47;99507.25;;;15.38;100.00
64683;BME280;51107;47.652;19.016;2023-06-10T04:35:16;99510.12;;;15.43;100.00
64683;BME280;51107;47.652;19.016;2023-06-10T04:37:44;99515.00;;;15.46;100.00
64683;BME280;51107;47.652;19.016;2023-06-10T04:40:13;99521.41;;;15.43;100.00
64683;BME280;51107;47.652;19.016;2023-06-10T04:42:42;99517.56;;;15.39;100.00
64683;BME280;51107;47.652;19.016;2023-06-10T04:45:10;99513.87;;;15.34;100.00
64683;BME280;51107;47.652;19.016;2023-06-10T04:47:40;99519.38;;;15.39;100.00
64683;BME280;51107;47.652;19.016;2023-06-10T04:50:08;99517.56;;;15.39;100.00
64683;BME280;51107;47.652;19.016;2023-06-10T04:52:37;99516.38;;;15.42;100.00
64683;BME280;51107;47.652;19.016;2023-06-10T04:55:06;99523.06;;;15.44;100.00
64683;BME280;51107;47.652;19.016;2023-06-10T04:57:34;99513.94;;;15.40;100.00
64683;BME280;51107;47.652;19.016;2023-06-10T05:00:03;99513.47;;;15.37;100.00
64683;BME280;51107;47.652;19.016;2023-06-10T05:02:34;99504.22;;;15.41;100.00
64683;BME280;51107;47.652;19.016;2023-06-10T05:05:02;99497.81;;;15.43;100.00
64683;BME280;51107;47.652;19.016;2023-06-10T05:07:31;99494.97;;;15.45;100.00
64683;BME280;51107;47.652;19.016;2023-06-10T05:09:59;99493.22;;;15.52;100.00
64683;BME280;51107;47.652;19.016;2023-06-10T05:12:28;99494.09;;;15.59;100.00
64683;BME280;51107;47.652;19.016;2023-06-10T05:14:56;99492.13;;;15.68;100.00
64683;BME280;51107;47.652;19.016;2023-06-10T05:17:25;99489.56;;;15.75;100.00
64683;BME280;51107;47.652;19.016;2023-06-10T05:19:53;99486.62;;;15.85;100.00
64683;BME280;51107;47.652;19.016;2023-06-10T05:22:21;99495.56;;;15.90;100.00
64683;BME280;51107;47.652;19.016;2023-06-10T05:24:52;99503.44;;;15.90;100.00
64683;BME280;51107;47.652;19.016;2023-06-10T05:27:23;99502.28;;;16.00;100.00
64683;BME280;51107;47.652;19.016;2023-06-10T05:29:52;99504.53;;;16.03;100.00
64683;BME280;51107;47.652;19.016;2023-06-10T05:32:21;99509.62;;;16.11;100.00
64683;BME280;51107;47.652;19.016;2023-06-10T05:34:49;99494.50;;;16.20;100.00
64683;BME280;51107;47.652;19.016;2023-06-10T05:37:17;99507.13;;;16.31;100.00
64683;BME280;51107;47.652;19.016;2023-06-10T05:39:46;99506.53;;;16.36;100.00
64683;BME280;51107;47.652;19.016;2023-06-10T05:42:14;99506.34;;;16.37;100.00
64683;BME280;51107;47.652;19.016;2023-06-10T05:44:42;99510.66;;;16.52;100.00
64683;BME280;51107;47.652;19.016;2023-06-10T05:47:10;99521.19;;;16.58;100.00
64683;BME280;51107;47.652;19.016;2023-06-10T05:49:38;99516.16;;;16.63;100.00
64683;BME280;51107;47.652;19.016;2023-06-10T05:52:07;99518.41;;;16.73;100.00
64683;BME280;51107;47.652;19.016;2023-06-10T05:54:35;99520.84;;;16.75;100.00
64683;BME280;51107;47.652;19.016;2023-06-10T05:57:04;99520.28;;;16.79;100.00
64683;BME280;51107;47.652;19.016;2023-06-10T05:59:34;99524.72;;;16.86;100.00
64683;BME280;51107;47.652;19.016;2023-06-10T06:02:02;99530.44;;;16.89;100.00
64683;BME280;51107;47.652;19.016;2023-06-10T06:04:30;99530.25;;;16.91;100.00
64683;BME280;51107;47.652;19.016;2023-06-10T06:07:00;99523.34;;;16.90;100.00
64683;BME280;51107;47.652;19.016;2023-06-10T06:09:28;99523.56;;;16.95;100.00
64683;BME280;51107;47.652;19.016;2023-06-10T06:11:56;99517.91;;;16.98;100.00
64683;BME280;51107;47.652;19.016;2023-06-10T06:14:24;99519.34;;;17.01;100.00
64683;BME280;51107;47.652;19.016;2023-06-10T06:16:52;99526.84;;;17.10;100.00
64683;BME280;51107;47.652;19.016;2023-06-10T06:19:21;99526.06;;;17.17;100.00
64683;BME280;51107;47.652;19.016;2023-06-10T06:21:49;99520.59;;;17.18;100.00
64683;BME280;51107;47.652;19.016;2023-06-10T06:24:17;99522.22;;;17.32;100.00
64683;BME280;51107;47.652;19.016;2023-06-10T06:26:46;99519.19;;;17.42;100.00
64683;BME280;51107;47.652;19.016;2023-06-10T06:29:14;99525.31;;;17.56;100.00
64683;BME280;51107;47.652;19.016;2023-06-10T06:31:42;99523.66;;;17.75;100.00
64683;BME280;51107;47.652;19.016;2023-06-10T06:34:11;99531.56;;;17.82;100.00
64683;BME280;51107;47.652;19.016;2023-06-10T06:36:43;99526.72;;;17.92;100.00
64683;BME280;51107;47.652;19.016;2023-06-10T06:39:11;99527.72;;;18.05;100.00
64683;BME280;51107;47.652;19.016;2023-06-10T06:41:40;99532.38;;;18.16;100.00
64683;BME280;51107;47.652;19.016;2023-06-10T06:44:08;99531.53;;;18.22;100.00
64683;BME280;51107;47.652;19.016;2023-06-10T06:46:37;99519.75;;;18.31;100.00
64683;BME280;51107;47.652;19.016;2023-06-10T06:49:05;99529.84;;;18.48;100.00
64683;BME280;51107;47.652;19.016;2023-06-10T06:51:34;99531.03;;;18.52;100.00
64683;BME280;51107;47.652;19.016;2023-06-10T06:54:03;99536.31;;;18.52;100.00
64683;BME280;51107;47.652;19.016;2023-06-10T06:56:33;99530.38;;;18.63;100.00
64683;BME280;51107;47.652;19.016;2023-06-10T06:59:01;99536.22;;;18.79;100.00
64683;BME280;51107;47.652;19.016;2023-06-10T07:01:30;99533.72;;;18.97;100.00
64683;BME280;51107;47.652;19.016;2023-06-10T07:03:58;99534.19;;;19.20;100.00
64683;BME280;51107;47.652;19.016;2023-06-10T07:06:27;99538.56;;;19.32;100.00
64683;BME280;51107;47.652;19.016;2023-06-10T07:08:55;99534.38;;;19.50;100.00
64683;BME280;51107;47.652;19.016;2023-06-10T07:11:23;99539.03;;;19.55;100.00
64683;BME280;51107;47.652;19.016;2023-06-10T07:13:51;99540.81;;;19.61;100.00
64683;BME280;51107;47.652;19.016;2023-06-10T07:16:20;99534.13;;;19.58;100.00
64683;BME280;51107;47.652;19.016;2023-06-10T07:18:49;99546.91;;;19.61;100.00
64683;BME280;51107;47.652;19.016;2023-06-10T07:21:17;99542.47;;;19.55;100.00
64683;BME280;51107;47.652;19.016;2023-06-10T07:23:46;99543.22;;;19.62;100.00
64683;BME280;51107;47.652;19.016;2023-06-10T07:26:14;99546.75;;;19.56;100.00
64683;BME280;51107;47.652;19.016;2023-06-10T07:28:43;99556.44;;;19.62;100.00
64683;BME280;51107;47.652;19.016;2023-06-10T07:31:11;99544.41;;;19.66;100.00
64683;BME280;51107;47.652;19.016;2023-06-10T07:33:40;99543.34;;;19.74;100.00
64683;BME280;51107;47.652;19.016;2023-06-10T07:36:09;99555.91;;;19.79;100.00
64683;BME280;51107;47.652;19.016;2023-06-10T07:38:37;99557.13;;;19.83;100.00
64683;BME280;51107;47.652;19.016;2023-06-10T07:41:05;99557.06;;;19.90;100.00
64683;BME280;51107;47.652;19.016;2023-06-10T07:43:34;99550.81;;;19.84;100.00
64683;BME280;51107;47.652;19.016;2023-06-10T07:46:02;99541.44;;;19.88;100.00
64683;BME280;51107;47.652;19.016;2023-06-10T07:48:31;99546.22;;;19.98;100.00
64683;BME280;51107;47.652;19.016;2023-06-10T07:50:59;99548.41;;;20.01;100.00
64683;BME280;51107;47.652;19.016;2023-06-10T07:53:28;99550.00;;;20.09;100.00
64683;BME280;51107;47.652;19.016;2023-06-10T07:55:56;99549.09;;;20.15;100.00
64683;BME280;51107;47.652;19.016;2023-06-10T07:58:24;99557.69;;;20.10;100.00
64683;BME280;51107;47.652;19.016;2023-06-10T08:00:54;99561.00;;;20.06;100.00
64683;BME280;51107;47.652;19.016;2023-06-10T08:03:22;99559.97;;;20.07;100.00
64683;BME280;51107;47.652;19.016;2023-06-10T08:05:51;99561.00;;;20.06;100.00
64683;BME280;51107;47.652;19.016;2023-06-10T08:08:19;99558.56;;;20.04;100.00
64683;BME280;51107;47.652;19.016;2023-06-10T08:10:47;99557.63;;;20.17;100.00
64683;BME280;51107;47.652;19.016;2023-06-10T08:13:17;99559.78;;;20.27;100.00
64683;BME280;51107;47.652;19.016;2023-06-10T08:15:45;99552.22;;;20.30;100.00
64683;BME280;51107;47.652;19.016;2023-06-10T08:18:16;99545.00;;;20.37;100.00
64683;BME280;51107;47.652;19.016;2023-06-10T08:20:44;99551.97;;;20.50;100.00
64683;BME280;51107;47.652;19.016;2023-06-10T08:23:12;99543.97;;;20.57;100.00
64683;BME280;51107;47.652;19.016;2023-06-10T08:25:42;99555.94;;;20.78;100.00
64683;BME280;51107;47.652;19.016;2023-06-10T08:28:10;99553.19;;;21.03;100.00
64683;BME280;51107;47.652;19.016;2023-06-10T08:30:38;99557.63;;;21.21;100.00
64683;BME280;51107;47.652;19.016;2023-06-10T08:33:06;99546.94;;;21.28;100.00
64683;BME280;51107;47.652;19.016;2023-06-10T08:35:35;99546.81;;;21.35;98.23
64683;BME280;51107;47.652;19.016;2023-06-10T08:38:03;99541.28;;;21.67;90.84
64683;BME280;51107;47.652;19.016;2023-06-10T08:40:33;99540.69;;;21.88;93.80
64683;BME280;51107;47.652;19.016;2023-06-10T08:43:07;99541.38;;;22.08;95.66
64683;BME280;51107;47.652;19.016;2023-06-10T08:45:36;99542.66;;;22.17;94.54
64683;BME280;51107;47.652;19.016;2023-06-10T08:48:05;99540.09;;;21.98;95.28
64683;BME280;51107;47.652;19.016;2023-06-10T08:50:37;99538.16;;;22.05;95.75
64683;BME280;51107;47.652;19.016;2023-06-10T08:53:07;99534.94;;;22.15;95.16
64683;BME280;51107;47.652;19.016;2023-06-10T08:55:36;99533.75;;;22.23;100.00
64683;BME280;51107;47.652;19.016;2023-06-10T08:58:04;99529.03;;;22.13;90.40
64683;BME280;51107;47.652;19.016;2023-06-10T09:00:34;99529.03;;;22.13;92.23
64683;BME280;51107;47.652;19.016;2023-06-10T09:03:04;99527.91;;;21.97;89.50
64683;BME280;51107;47.652;19.016;2023-06-10T09:05:33;99522.25;;;22.05;90.33
64683;BME280;51107;47.652;19.016;2023-06-10T09:08:02;99523.97;;;22.12;89.08
64683;BME280;51107;47.652;19.016;2023-06-10T09:10:30;99520.50;;;22.11;87.13
64683;BME280;51107;47.652;19.016;2023-06-10T09:12:59;99521.41;;;22.41;100.00
64683;BME280;51107;47.652;19.016;2023-06-10T09:15:27;99510.75;;;22.52;87.81
64683;BME280;51107;47.652;19.016;2023-06-10T09:17:55;99509.81;;;22.59;90.28
64683;BME280;51107;47.652;19.016;2023-06-10T09:20:24;99511.53;;;22.65;82.40
64683;BME280;51107;47.652;19.016;2023-06-10T09:22:53;99504.38;;;22.65;83.44
64683;BME280;51107;47.652;19.016;2023-06-10T09:25:34;99505.31;;;22.59;81.79
64683;BME280;51107;47.652;19.016;2023-06-10T09:28:04;99507.56;;;22.38;90.27
64683;BME280;51107;47.652;19.016;2023-06-10T09:30:33;99507.25;;;22.11;82.67
64683;BME280;51107;47.652;19.016;2023-06-10T09:33:08;99499.88;;;22.01;93.69
64683;BME280;51107;47.652;19.016;2023-06-10T09:35:45;99498.78;;;22.38;96.89
64683;BME280;51107;47.652;19.016;2023-06-10T09:38:21;99498.69;;;22.73;92.72
64683;BME280;51107;47.652;19.016;2023-06-10T09:40:51;99496.28;;;22.89;86.13
64683;BME280;51107;47.652;19.016;2023-06-10T09:43:20;99498.87;;;23.47;84.06
64683;BME280;51107;47.652;19.016;2023-06-10T09:45:50;99509.72;;;23.62;85.61
64683;BME280;51107;47.652;19.016;2023-06-10T09:48:21;99499.44;;;23.15;85.05
64683;BME280;51107;47.652;19.016;2023-06-10T09:50:51;99503.47;;;23.34;89.65
64683;BME280;51107;47.652;19.016;2023-06-10T09:53:20;99508.13;;;23.61;82.15
64683;BME280;51107;47.652;19.016;2023-06-10T09:55:49;99507.88;;;23.46;81.35
64683;BME280;51107;47.652;19.016;2023-06-10T09:58:34;99502.41;;;23.52;86.27
64683;BME280;51107;47.652;19.016;2023-06-10T10:01:11;99511.13;;;23.48;84.26
64683;BME280;51107;47.652;19.016;2023-06-10T10:03:51;99500.88;;;23.39;85.49
64683;BME280;51107;47.652;19.016;2023-06-10T10:06:20;99500.97;;;23.45;86.24
64683;BME280;51107;47.652;19.016;2023-06-10T10:08:50;99497.97;;;23.58;86.57
64683;BME280;51107;47.652;19.016;2023-06-10T10:11:20;99495.81;;;23.55;84.73
64683;BME280;51107;47.652;19.016;2023-06-10T10:13:53;99500.78;;;23.68;81.16
64683;BME280;51107;47.652;19.016;2023-06-10T10:16:25;99495.31;;;23.41;82.31
64683;BME280;51107;47.652;19.016;2023-06-10T10:19:01;99491.53;;;23.20;77.85
64683;BME280;51107;47.652;19.016;2023-06-10T10:21:38;99495.75;;;22.87;81.92
64683;BME280;51107;47.652;19.016;2023-06-10T10:24:20;99491.88;;;22.95;82.50
64683;BME280;51107;47.652;19.016;2023-06-10T10:26:50;99496.88;;;22.91;84.03
64683;BME280;51107;47.652;19.016;2023-06-10T10:29:20;99488.72;;;22.81;84.18
64683;BME280;51107;47.652;19.016;2023-06-10T10:31:52;99493.88;;;22.87;85.63
64683;BME280;51107;47.652;19.016;2023-06-10T10:34:35;99492.47;;;22.68;83.20
64683;BME280;51107;47.652;19.016;2023-06-10T10:37:04;99492.00;;;22.71;88.69
64683;BME280;51107;47.652;19.016;2023-06-10T10:39:34;99484.38;;;22.75;88.12
64683;BME280;51107;47.652;19.016;2023-06-10T10:42:04;99480.00;;;22.68;82.99
64683;BME280;51107;47.652;19.016;2023-06-10T10:44:34;99480.06;;;22.56;90.37
64683;BME280;51107;47.652;19.016;2023-06-10T10:47:03;99469.19;;;22.58;78.97
64683;BME280;51107;47.652;19.016;2023-06-10T10:49:33;99480.22;;;22.96;92.17
64683;BME280;51107;47.652;19.016;2023-06-10T10:52:03;99464.69;;;23.04;75.00
64683;BME280;51107;47.652;19.016;2023-06-10T10:54:36;99466.75;;;23.14;82.48
64683;BME280;51107;47.652;19.016;2023-06-10T10:57:16;99460.78;;;23.24;78.92
64683;BME280;51107;47.652;19.016;2023-06-10T11:02:18;99465.53;;;23.39;82.48
64683;BME280;51107;47.652;19.016;2023-06-10T11:05:00;99454.56;;;23.35;73.35
64683;BME280;51107;47.652;19.016;2023-06-10T11:07:31;99451.84;;;23.47;78.62
64683;BME280;51107;47.652;19.016;2023-06-10T11:10:10;99456.34;;;23.64;84.63
64683;BME280;51107;47.652;19.016;2023-06-10T11:12:53;99443.25;;;23.62;81.81
64683;BME280;51107;47.652;19.016;2023-06-10T11:15:27;99451.22;;;23.62;73.40
64683;BME280;51107;47.652;19.016;2023-06-10T11:18:12;99446.56;;;23.52;73.51
64683;BME280;51107;47.652;19.016;2023-06-10T11:31:32;99435.09;;;23.69;76.74
64683;BME280;51107;47.652;19.016;2023-06-10T11:34:03;99431.56;;;23.63;81.71
64683;BME280;51107;47.652;19.016;2023-06-10T11:36:41;99444.19;;;23.73;78.11
64683;BME280;51107;47.652;19.016;2023-06-10T11:39:11;99437.06;;;23.56;77.93
64683;BME280;51107;47.652;19.016;2023-06-10T11:41:40;99437.47;;;23.48;80.36
64683;BME280;51107;47.652;19.016;2023-06-10T11:44:12;99430.75;;;23.40;80.31
64683;BME280;51107;47.652;19.016;2023-06-10T11:46:48;99436.22;;;23.34;82.00
64683;BME280;51107;47.652;19.016;2023-06-10T11:49:20;99438.03;;;22.99;86.20
64683;BME280;51107;47.652;19.016;2023-06-10T11:51:48;99443.25;;;22.77;86.93
64683;BME280;51107;47.652;19.016;2023-06-10T11:54:18;99449.22;;;22.55;89.67
64683;BME280;51107;47.652;19.016;2023-06-10T11:56:46;99444.69;;;22.27;92.68
64683;BME280;51107;47.652;19.016;2023-06-10T11:59:15;99443.69;;;22.16;91.26
64683;BME280;51107;47.652;19.016;2023-06-10T12:01:45;99441.97;;;21.98;88.56
64683;BME280;51107;47.652;19.016;2023-06-10T12:04:16;99453.31;;;21.94;95.94
64683;BME280;51107;47.652;19.016;2023-06-10T12:06:50;99448.34;;;21.85;90.04
64683;BME280;51107;47.652;19.016;2023-06-10T12:09:24;99444.09;;;21.84;90.59
64683;BME280;51107;47.652;19.016;2023-06-10T12:12:01;99441.09;;;21.81;86.99
64683;BME280;51107;47.652;19.016;2023-06-10T12:14:50;99438.69;;;21.79;93.09
64683;BME280;51107;47.652;19.016;2023-06-10T12:17:34;99437.19;;;21.71;94.63
64683;BME280;51107;47.652;19.016;2023-06-10T12:20:25;99436.16;;;21.61;100.00
64683;BME280;51107;47.652;19.016;2023-06-10T12:22:53;99444.47;;;21.52;100.00
64683;BME280;51107;47.652;19.016;2023-06-10T12:25:26;99442.47;;;21.48;100.00
64683;BME280;51107;47.652;19.016;2023-06-10T12:27:57;99432.69;;;21.36;100.00
64683;BME280;51107;47.652;19.016;2023-06-10T12:30:27;99427.38;;;21.25;100.00
64683;BME280;51107;47.652;19.016;2023-06-10T12:32:56;99427.47;;;21.18;100.00
64683;BME280;51107;47.652;19.016;2023-06-10T12:35:26;99418.50;;;21.19;100.00
64683;BME280;51107;47.652;19.016;2023-06-10T12:37:58;99416.97;;;21.11;100.00
64683;BME280;51107;47.652;19.016;2023-06-10T12:40:33;99412.28;;;21.13;100.00
64683;BME280;51107;47.652;19.016;2023-06-10T12:43:02;99409.41;;;21.15;100.00
64683;BME280;51107;47.652;19.016;2023-06-10T12:45:33;99405.81;;;21.21;100.00
64683;BME280;51107;47.652;19.016;2023-06-10T12:50:41;99393.97;;;21.35;100.00
64683;BME280;51107;47.652;19.016;2023-06-10T12:53:11;99397.78;;;21.40;91.57
64683;BME280;51107;47.652;19.016;2023-06-10T12:55:39;99389.94;;;21.45;94.26
64683;BME280;51107;47.652;19.016;2023-06-10T12:58:08;99393.94;;;21.47;95.50
64683;BME280;51107;47.652;19.016;2023-06-10T13:00:36;99397.09;;;21.56;97.61
64683;BME280;51107;47.652;19.016;2023-06-10T13:03:05;99387.97;;;21.64;100.00
64683;BME280;51107;47.652;19.016;2023-06-10T13:05:35;99394.22;;;21.69;95.29
64683;BME280;51107;47.652;19.016;2023-06-10T13:08:06;99389.25;;;21.73;87.82
64683;BME280;51107;47.652;19.016;2023-06-10T13:10:36;99383.56;;;21.81;89.61
64683;BME280;51107;47.652;19.016;2023-06-10T13:13:04;99386.69;;;21.78;92.39
64683;BME280;51107;47.652;19.016;2023-06-10T13:15:33;99388.88;;;21.81;86.06